Time;durP1;ratioP1;P1;durP2;ratioP2;P2;SDS_P1;SDS_P2;PMS_P1;PMS_P2;Temp;Humidity;BMP_temperature;BMP_pressure;BME280_temperature;BME280_humidity;BME280_pressure;Samples;Min_cycle;Max_cycle;Signal;HPM_P1;HPM_P2
2021/10/04 00:00:09;;;;;;;3.00;2.00;;;16.70;99.90;;;16.58;93.45;98097.88;5055354;28;20636;-84
2021/10/04 00:02:43;;;;;;;3.40;2.13;;;16.70;99.90;;;16.56;93.56;98091.09;5054463;28;20719;-84
2021/10/04 00:05:13;;;;;;;3.33;2.70;;;16.70;99.90;;;16.54;92.99;98099.13;5071932;28;21180;-84
2021/10/04 00:07:42;;;;;;;3.07;2.20;;;16.70;99.90;;;16.54;91.21;98093.03;5074789;28;20787;-84
2021/10/04 00:10:14;;;;;;;3.87;2.40;;;16.70;99.90;;;16.54;91.65;98085.97;5071186;28;20660;-84
2021/10/04 00:12:44;;;;;;;6.63;2.23;;;16.70;99.90;;;16.53;91.75;98100.09;5084698;28;20675;-84
2021/10/04 00:15:17;;;;;;;4.00;2.20;;;16.60;99.90;;;16.52;92.78;98103.72;5070232;28;21003;-84
2021/10/04 00:17:47;;;;;;;2.43;1.80;;;16.70;99.90;;;16.52;92.76;98095.81;5074870;28;20624;-84
2021/10/04 00:20:17;;;;;;;2.30;1.50;;;16.60;99.90;;;16.52;91.47;98102.88;5070939;28;20632;-84
2021/10/04 00:22:47;;;;;;;2.13;1.40;;;16.60;99.90;;;16.50;91.25;98098.72;5070563;28;20655;-84
2021/10/04 00:25:16;;;;;;;2.47;1.30;;;16.60;99.90;;;16.50;90.36;98103.00;5072330;28;20621;-84
2021/10/04 00:27:46;;;;;;;1.90;1.20;;;16.60;99.90;;;16.49;91.49;98097.06;5069956;28;20666;-84
2021/10/04 00:30:16;;;;;;;2.50;1.30;;;16.60;99.90;;;16.49;91.27;98099.69;5069301;28;21191;-84
2021/10/04 00:32:48;;;;;;;2.50;1.20;;;16.60;99.90;;;16.47;92.24;98097.19;5072807;28;20638;-84
2021/10/04 00:35:20;;;;;;;2.40;1.30;;;16.60;99.90;;;16.46;91.42;98090.25;5045957;28;20650;-84
2021/10/04 00:37:50;;;;;;;1.87;1.07;;;16.60;99.90;;;16.46;92.62;98102.59;5068222;28;20628;-84
2021/10/04 00:40:23;;;;;;;7.00;2.50;;;16.60;99.90;;;16.46;92.70;98094.69;5068816;28;20620;-84
2021/10/04 00:42:54;;;;;;;1.90;1.30;;;16.60;99.90;;;16.44;93.01;98096.66;5054235;28;20636;-84
2021/10/04 00:45:25;;;;;;;3.00;1.23;;;16.60;99.90;;;16.44;91.65;98101.91;5064599;28;20635;-84
2021/10/04 00:47:54;;;;;;;2.00;1.10;;;16.60;99.90;;;16.43;92.54;98089.72;5067887;28;20732;-84
2021/10/04 00:50:25;;;;;;;2.23;1.33;;;16.60;99.90;;;16.43;92.30;98102.88;5055052;28;20908;-84
2021/10/04 00:52:54;;;;;;;2.47;1.40;;;16.60;99.90;;;16.41;92.35;98110.09;5064898;28;21199;-84
2021/10/04 00:55:23;;;;;;;2.20;1.37;;;16.50;99.90;;;16.40;91.86;98103.16;5070785;28;21220;-84
2021/10/04 00:57:56;;;;;;;2.17;1.37;;;16.60;99.90;;;16.40;92.19;98109.25;5082360;28;20726;-84
2021/10/04 01:00:28;;;;;;;2.50;1.70;;;16.50;99.90;;;16.38;92.39;98102.47;5071998;28;20631;-84
2021/10/04 01:02:57;;;;;;;2.57;1.50;;;16.50;99.90;;;16.36;91.45;98104.44;5068862;28;20636;-84
2021/10/04 01:05:26;;;;;;;3.63;1.63;;;16.50;99.90;;;16.35;92.76;98113.28;5054480;28;20635;-84
2021/10/04 01:07:55;;;;;;;2.80;1.90;;;16.50;99.90;;;16.33;90.74;98115.25;5064884;28;20766;-84
2021/10/04 01:10:23;;;;;;;2.40;1.60;;;16.50;99.90;;;16.30;91.62;98120.78;5052377;28;20717;-84
2021/10/04 01:12:54;;;;;;;3.00;1.70;;;16.40;99.90;;;16.27;90.81;98126.31;5054789;28;20651;-84
2021/10/04 01:15:23;;;;;;;2.53;1.93;;;16.40;99.90;;;16.24;91.58;98121.34;5083497;28;20639;-84
2021/10/04 01:17:54;;;;;;;2.60;1.60;;;16.40;99.90;;;16.25;92.05;98126.47;5080749;28;20624;-84
2021/10/04 01:20:27;;;;;;;2.37;1.40;;;16.40;99.90;;;16.20;90.60;98122.53;5070042;28;21244;-84
2021/10/04 01:22:57;;;;;;;4.70;1.60;;;16.30;99.90;;;16.16;91.34;98129.03;5071483;28;20632;-84
2021/10/04 01:25:27;;;;;;;2.03;1.33;;;16.30;99.90;;;16.12;91.60;98117.13;5070895;28;20724;-84
2021/10/04 01:27:56;;;;;;;3.07;1.40;;;16.20;99.90;;;16.11;90.95;98105.75;5068838;28;22317;-84
2021/10/04 01:30:28;;;;;;;2.97;2.03;;;16.30;99.90;;;16.12;89.63;98110.06;5067211;28;20624;-84
2021/10/04 01:32:58;;;;;;;2.10;1.30;;;16.20;99.90;;;16.09;90.02;98117.41;5067557;28;20631;-84
2021/10/04 01:35:28;;;;;;;2.30;1.30;;;16.20;99.90;;;16.06;91.24;98113.25;5071558;28;20632;-84
2021/10/04 01:37:57;;;;;;;3.37;1.50;;;16.20;99.90;;;16.05;90.37;98108.13;5069176;28;20619;-84
2021/10/04 01:40:26;;;;;;;3.37;1.40;;;16.20;99.90;;;16.03;90.71;98117.97;5066620;28;21211;-84
2021/10/04 01:42:54;;;;;;;2.10;1.33;;;16.20;99.90;;;16.02;91.18;98120.72;5052116;28;20639;-83
2021/10/04 01:45:26;;;;;;;2.47;1.30;;;16.20;99.90;;;16.02;91.68;98121.56;5046411;28;20638;-83
2021/10/04 01:47:59;;;;;;;2.20;1.37;;;16.10;99.90;;;16.00;92.47;98123.50;5070454;28;20655;-84
2021/10/04 01:50:32;;;;;;;2.03;1.27;;;16.10;99.90;;;15.99;91.77;98119.19;5066291;28;20635;-84
2021/10/04 01:53:01;;;;;;;2.30;1.23;;;16.10;99.90;;;15.95;91.72;98124.88;5071785;28;20631;-83
2021/10/04 01:55:30;;;;;;;5.53;1.50;;;16.10;99.90;;;15.94;91.77;98133.75;5067399;28;20667;-84
2021/10/04 01:57:58;;;;;;;2.73;1.60;;;16.10;99.90;;;15.95;93.26;98141.50;5051760;28;21799;-84
2021/10/04 02:00:27;;;;;;;2.00;1.10;;;16.10;99.90;;;15.95;91.63;98141.50;5051699;28;20627;-84
2021/10/04 02:02:57;;;;;;;5.20;1.40;;;16.10;99.90;;;15.98;91.55;98148.28;5069953;28;20627;-84
2021/10/04 02:05:32;;;;;;;3.30;1.70;;;16.10;99.90;;;15.95;91.10;98144.13;5051448;28;20616;-84
2021/10/04 02:08:01;;;;;;;2.57;1.40;;;16.00;99.90;;;15.94;93.03;98145.09;5050208;28;20666;-84
2021/10/04 02:10:33;;;;;;;2.10;1.20;;;16.00;99.90;;;15.95;91.12;98152.03;5067630;28;20702;-84
2021/10/04 02:13:05;;;;;;;2.00;1.30;;;16.10;99.90;;;15.95;92.98;98141.50;5073390;28;21254;-84
2021/10/04 02:15:34;;;;;;;3.60;1.40;;;16.10;99.90;;;15.94;92.28;98155.63;5071329;28;20679;-84
2021/10/04 02:18:04;;;;;;;2.63;1.40;;;16.00;99.90;;;15.90;91.92;98162.09;5068550;28;21476;-84
2021/10/04 02:20:37;;;;;;;4.10;1.30;;;16.00;99.90;;;15.88;90.38;98157.97;5072447;28;20628;-84
2021/10/04 02:23:07;;;;;;;2.43;1.30;;;16.00;99.90;;;15.87;92.38;98153.66;5073297;28;20632;-84
2021/10/04 02:25:37;;;;;;;2.57;1.30;;;16.00;99.90;;;15.88;91.71;98153.53;5076175;28;20632;-84
2021/10/04 02:28:09;;;;;;;2.50;1.50;;;16.00;99.90;;;15.89;91.70;98156.97;5051112;28;21003;-84
2021/10/04 02:30:38;;;;;;;2.00;1.10;;;16.00;99.90;;;15.87;92.96;98157.13;5077020;28;21263;-84
2021/10/04 02:33:07;;;;;;;2.40;1.23;;;16.00;99.90;;;15.86;92.96;98152.84;5053789;28;20664;-84
2021/10/04 02:35:38;;;;;;;2.40;1.40;;;16.00;99.90;;;15.82;91.32;98156.69;5072076;28;20635;-84
2021/10/04 02:38:07;;;;;;;2.20;1.20;;;16.00;99.90;;;15.82;91.08;98163.78;5075653;28;20654;-84
2021/10/04 02:40:36;;;;;;;2.53;1.30;;;16.00;99.90;;;15.78;92.96;98160.56;5073835;28;20643;-84
2021/10/04 02:43:08;;;;;;;2.87;1.30;;;15.90;99.90;;;15.77;92.57;98161.53;5072524;28;20689;-84
2021/10/04 02:45:36;;;;;;;2.20;1.43;;;15.90;99.90;;;15.74;91.12;98159.19;5072924;28;20616;-84
2021/10/04 02:48:06;;;;;;;2.60;1.10;;;15.90;99.90;;;15.73;92.11;98154.88;5074737;28;20694;-84
2021/10/04 02:50:35;;;;;;;2.00;1.07;;;15.90;99.90;;;15.72;92.72;98144.50;5072166;28;20627;-84
2021/10/04 02:53:05;;;;;;;2.20;1.20;;;15.80;99.90;;;15.69;92.90;98142.94;5055906;28;20722;-84
2021/10/04 02:55:33;;;;;;;1.83;1.17;;;15.80;99.90;;;15.68;92.79;98130.78;5065923;28;20612;-84
2021/10/04 02:58:02;;;;;;;3.40;1.60;;;15.80;99.90;;;15.67;91.91;98129.13;5065223;28;20628;-84
2021/10/04 03:00:33;;;;;;;1.83;1.03;;;15.80;99.90;;;15.64;92.30;98133.81;5073785;28;20640;-83
2021/10/04 03:03:03;;;;;;;3.50;1.40;;;15.80;99.90;;;15.62;92.26;98157.63;5072888;28;20666;-84
2021/10/04 03:05:33;;;;;;;3.37;1.33;;;15.80;99.90;;;15.63;92.57;98163.69;5074843;28;21292;-84
2021/10/04 03:08:02;;;;;;;3.60;1.10;;;15.80;99.90;;;15.60;91.87;98162.16;5070160;28;21178;-83
2021/10/04 03:10:33;;;;;;;2.00;1.10;;;15.80;99.90;;;15.58;93.31;98163.28;5073277;28;21199;-83
2021/10/04 03:13:02;;;;;;;2.43;1.87;;;15.70;99.90;;;15.55;91.89;98153.84;5070359;28;20635;-83
2021/10/04 03:15:31;;;;;;;2.93;1.23;;;15.70;99.90;;;15.54;92.83;98159.25;5071664;28;20637;-84
2021/10/04 03:18:00;;;;;;;2.00;1.30;;;15.70;99.90;;;15.52;91.78;98136.69;5069705;28;21174;-84
2021/10/04 03:20:28;;;;;;;2.53;1.00;;;15.70;99.90;;;15.52;93.31;98137.53;5056313;28;20643;-84
2021/10/04 03:22:57;;;;;;;2.30;1.50;;;15.70;99.90;;;15.49;92.57;98143.03;5071963;28;20989;-83
2021/10/04 03:25:26;;;;;;;2.83;1.23;;;15.60;99.90;;;15.48;93.72;98148.44;5086488;28;20631;-84
2021/10/04 03:27:56;;;;;;;2.77;1.13;;;15.60;99.90;;;15.47;92.69;98170.41;5063312;28;20645;-84
2021/10/04 03:30:26;;;;;;;2.53;1.40;;;15.60;99.90;;;15.46;92.30;98184.56;5066172;28;20655;-84
2021/10/04 03:32:54;;;;;;;1.67;0.90;;;15.60;99.90;;;15.44;93.71;98179.44;5070233;28;20627;-84
2021/10/04 03:35:24;;;;;;;1.70;0.97;;;15.60;99.90;;;15.44;93.14;98186.47;5055169;28;21187;-84
2021/10/04 03:37:52;;;;;;;1.93;1.13;;;15.60;99.90;;;15.45;94.02;98183.69;5073878;28;20627;-84
2021/10/04 03:40:21;;;;;;;2.60;1.30;;;15.60;99.90;;;15.45;92.65;98178.44;5070411;28;20637;-84
2021/10/04 03:42:50;;;;;;;2.20;1.30;;;15.60;99.90;;;15.47;93.05;98170.41;5071488;28;20670;-84
2021/10/04 03:45:20;;;;;;;2.80;1.40;;;15.60;99.90;;;15.47;93.88;98171.28;5071801;28;20628;-84
2021/10/04 03:47:49;;;;;;;1.93;1.30;;;15.60;99.90;;;15.45;92.75;98178.44;5070767;28;20615;-84
2021/10/04 03:50:18;;;;;;;2.10;1.20;;;15.60;99.90;;;15.45;94.51;98172.34;5073007;28;20660;-84
2021/10/04 03:52:48;;;;;;;2.90;1.33;;;15.60;99.90;;;15.43;93.46;98180.38;5052076;28;20713;-84
2021/10/04 03:55:17;;;;;;;3.10;1.40;;;15.60;99.90;;;15.40;94.67;98179.81;5071094;28;20624;-84
2021/10/04 03:57:46;;;;;;;2.73;1.20;;;15.50;99.90;;;15.38;95.19;98193.09;5071108;28;20639;-84
2021/10/04 04:00:21;;;;;;;1.87;1.27;;;15.50;99.90;;;15.36;95.11;98183.66;5071000;28;21244;-84
2021/10/04 04:02:50;;;;;;;3.47;1.50;;;15.50;99.90;;;15.34;93.19;98190.84;5076537;28;20623;-86
2021/10/04 04:05:20;;;;;;;2.47;1.50;;;15.50;99.90;;;15.32;94.06;98192.75;5069892;28;21448;-86
2021/10/04 04:07:49;;;;;;;2.27;1.40;;;15.50;99.90;;;15.32;93.80;98203.28;5067629;28;20673;-86
2021/10/04 04:10:17;;;;;;;2.37;1.67;;;15.50;99.90;;;15.30;94.69;98205.22;5050946;28;20671;-86
2021/10/04 04:12:46;;;;;;;3.07;1.70;;;15.50;99.90;;;15.29;94.57;98206.16;5070544;28;20623;-87
2021/10/04 04:15:16;;;;;;;4.03;1.40;;;15.40;99.90;;;15.30;95.44;98207.84;5069595;28;20775;-84
2021/10/04 04:17:46;;;;;;;3.13;1.53;;;15.50;99.90;;;15.28;95.43;98212.41;5067292;28;20643;-84
2021/10/04 04:20:16;;;;;;;3.50;1.47;;;15.40;99.90;;;15.29;94.64;98214.06;5070427;28;21104;-84
2021/10/04 04:22:46;;;;;;;2.20;1.20;;;15.40;99.90;;;15.28;95.46;98213.22;5052645;28;21006;-84
2021/10/04 04:25:18;;;;;;;2.67;1.40;;;15.40;99.90;;;15.29;94.67;98216.69;5070959;28;20746;-84
2021/10/04 04:27:47;;;;;;;2.53;1.40;;;15.40;99.90;;;15.26;93.39;98215.16;5071653;28;21088;-84
2021/10/04 04:30:16;;;;;;;2.40;1.50;;;15.40;99.90;;;15.21;94.88;98213.88;5070926;28;20671;-84
2021/10/04 04:32:46;;;;;;;2.30;1.40;;;15.30;99.90;;;15.17;94.66;98220.38;5053304;28;20727;-84
2021/10/04 04:35:15;;;;;;;2.00;1.50;;;15.20;99.90;;;15.15;95.46;98217.00;5065245;28;20968;-84
2021/10/04 04:37:44;;;;;;;2.40;1.27;;;15.20;99.90;;;15.14;94.97;98234.56;5069119;28;20630;-84
2021/10/04 04:40:16;;;;;;;2.37;1.50;;;15.30;99.90;;;15.14;95.82;98236.38;5067815;28;20640;-84
2021/10/04 04:42:45;;;;;;;2.10;1.30;;;15.20;99.90;;;15.14;95.35;98246.88;5066794;28;20668;-84
2021/10/04 04:45:17;;;;;;;5.17;1.60;;;15.20;99.90;;;15.11;94.62;98247.94;5052706;28;20719;-84
2021/10/04 04:47:49;;;;;;;2.30;1.60;;;15.20;99.90;;;15.13;96.37;98239.94;5068542;28;21215;-84
2021/10/04 04:50:19;;;;;;;2.80;1.50;;;15.30;99.90;;;15.12;95.65;98225.97;5054141;28;20752;-84
2021/10/04 04:52:49;;;;;;;2.00;1.20;;;15.30;99.90;;;15.09;96.01;98209.63;5055780;28;20636;-84
2021/10/04 04:55:18;;;;;;;2.17;1.20;;;15.20;99.90;;;15.07;94.16;98216.81;5072876;28;20627;-84
2021/10/04 04:57:47;;;;;;;4.27;1.60;;;15.20;99.90;;;15.06;95.85;98222.19;5054104;28;20629;-84
2021/10/04 05:00:18;;;;;;;3.80;1.10;;;15.20;99.90;;;15.03;96.03;98225.91;5066638;28;20650;-84
2021/10/04 05:02:48;;;;;;;2.03;1.17;;;15.20;99.90;;;15.02;94.73;98237.38;5053691;28;20640;-84
2021/10/04 05:05:19;;;;;;;2.07;1.13;;;15.20;99.90;;;15.01;95.49;98238.34;5064616;28;20729;-84
2021/10/04 05:07:48;;;;;;;2.07;1.10;;;15.10;99.90;;;15.00;95.46;98234.03;5075417;28;20746;-84
2021/10/04 05:10:17;;;;;;;3.47;1.07;;;15.10;99.90;;;14.98;95.07;98241.22;5074802;28;20648;-84
2021/10/04 05:12:46;;;;;;;2.00;1.20;;;15.10;99.90;;;14.98;95.07;98233.34;5071138;28;20691;-84
2021/10/04 05:15:15;;;;;;;3.77;1.17;;;15.10;99.90;;;14.97;94.59;98242.16;5071592;28;20659;-84
2021/10/04 05:17:43;;;;;;;2.40;1.33;;;15.10;99.90;;;14.96;96.35;98253.66;5084861;28;20637;-84
2021/10/04 05:20:14;;;;;;;2.53;1.40;;;15.10;99.90;;;14.96;95.04;98258.06;5087701;28;20627;-84
2021/10/04 05:22:43;;;;;;;1.83;1.10;;;15.10;99.90;;;14.96;94.58;98258.06;5073386;28;20636;-84
2021/10/04 05:25:12;;;;;;;2.73;1.30;;;15.10;99.90;;;14.95;96.32;98262.50;5071138;28;21345;-84
2021/10/04 05:27:41;;;;;;;3.10;1.10;;;15.10;99.90;;;14.94;95.15;98260.81;5066849;28;20651;-84
2021/10/04 05:30:12;;;;;;;2.47;1.10;;;15.10;99.90;;;14.94;96.28;98257.38;5071992;28;23553;-84
2021/10/04 05:32:41;;;;;;;2.67;1.17;;;15.10;99.90;;;14.92;95.41;98259.28;5064780;28;20751;-84
2021/10/04 05:35:14;;;;;;;2.00;1.17;;;15.00;99.90;;;14.92;96.01;98269.78;5070041;28;21479;-84
2021/10/04 05:37:43;;;;;;;1.97;1.00;;;15.00;99.90;;;14.92;95.88;98259.28;5068249;28;20644;-84
2021/10/04 05:40:14;;;;;;;1.60;0.73;;;15.00;99.90;;;14.90;95.85;98274.31;5055191;28;20666;-84
2021/10/04 05:42:43;;;;;;;4.80;1.40;;;15.00;99.90;;;14.88;95.01;98277.06;5068426;28;20716;-84
2021/10/04 05:45:15;;;;;;;2.20;1.30;;;15.00;99.90;;;14.87;95.71;98296.44;5051853;28;20652;-84
2021/10/04 05:47:44;;;;;;;2.20;1.40;;;15.00;99.90;;;14.89;96.14;98293.69;5046931;28;20642;-83
2021/10/04 05:50:14;;;;;;;4.93;1.60;;;15.00;99.90;;;14.88;95.51;98292.00;5068635;28;20658;-84
2021/10/04 05:52:43;;;;;;;5.80;1.70;;;15.00;99.90;;;14.90;96.13;98304.06;5055107;28;20639;-84
2021/10/04 05:55:12;;;;;;;2.10;1.23;;;15.00;99.90;;;14.89;95.30;98305.03;5051877;28;20647;-84
2021/10/04 05:57:43;;;;;;;4.17;1.00;;;15.10;99.90;;;14.87;95.18;98306.94;5064011;28;20639;-84
2021/10/04 06:00:14;;;;;;;1.73;1.03;;;15.00;99.90;;;14.87;96.57;98306.09;5051472;28;20620;-84
2021/10/04 06:02:44;;;;;;;1.83;1.10;;;15.00;99.90;;;14.85;95.13;98306.22;5070513;28;20740;-84
2021/10/04 06:05:15;;;;;;;2.70;1.27;;;15.00;99.90;;;14.86;95.66;98307.06;5072963;28;20636;-84
2021/10/04 06:07:44;;;;;;;4.00;1.20;;;15.00;99.90;;;14.86;95.45;98315.78;5073788;28;21306;-84
2021/10/04 06:10:12;;;;;;;4.40;1.33;;;15.00;99.90;;;14.83;94.86;98305.53;5074491;28;20662;-85
2021/10/04 06:12:42;;;;;;;2.37;1.20;;;15.00;99.90;;;14.82;95.97;98309.09;5067485;28;20754;-85
2021/10/04 06:15:13;;;;;;;1.80;1.10;;;15.00;99.90;;;14.82;95.68;98316.16;5067942;28;20682;-84
2021/10/04 06:17:43;;;;;;;2.43;1.00;;;15.00;99.90;;;14.80;95.32;98321.53;5070944;28;20628;-85
2021/10/04 06:20:15;;;;;;;2.33;1.20;;;15.00;99.90;;;14.81;94.76;98319.75;5072177;28;20632;-84
2021/10/04 06:22:43;;;;;;;2.10;1.33;;;14.90;99.90;;;14.79;96.56;98325.13;5086587;28;21006;-84
2021/10/04 06:25:15;;;;;;;2.40;1.10;;;15.00;99.90;;;14.78;95.84;98326.06;5069171;28;20679;-84
2021/10/04 06:27:44;;;;;;;1.93;1.03;;;14.90;99.90;;;14.75;94.93;98328.94;5070565;28;20642;-84
2021/10/04 06:30:14;;;;;;;1.90;1.03;;;14.90;99.90;;;14.73;95.98;98336.13;5058323;28;20655;-84
2021/10/04 06:32:43;;;;;;;2.40;1.30;;;14.90;99.90;;;14.73;95.54;98330.88;5072143;28;20617;-83
2021/10/04 06:35:13;;;;;;;1.80;1.03;;;14.90;99.90;;;14.72;95.62;98334.44;5064899;28;20624;-83
2021/10/04 06:37:42;;;;;;;3.10;1.40;;;14.80;99.90;;;14.71;94.83;98324.91;5070883;28;20726;-84
2021/10/04 06:40:12;;;;;;;3.20;2.00;;;14.80;99.90;;;14.73;96.42;98335.28;5066759;28;20620;-84
2021/10/04 06:42:41;;;;;;;2.03;1.20;;;14.80;99.90;;;14.73;95.15;98325.63;5069950;28;20666;-84
2021/10/04 06:45:10;;;;;;;2.60;1.37;;;14.90;99.90;;;14.74;95.17;98337.78;5067561;28;20666;-83
2021/10/04 06:47:39;;;;;;;2.00;1.30;;;14.80;99.90;;;14.79;97.34;98329.53;5073015;28;20750;-83
2021/10/04 06:50:10;;;;;;;2.23;1.23;;;14.90;99.90;;;14.80;95.46;98337.28;5067887;28;20628;-83
2021/10/04 06:52:41;;;;;;;2.30;1.40;;;14.90;99.90;;;14.83;95.34;98344.09;5071229;28;20654;-83
2021/10/04 06:55:11;;;;;;;2.23;1.00;;;14.90;99.90;;;14.83;96.12;98347.53;5069282;28;20639;-83
2021/10/04 06:57:41;;;;;;;3.53;2.00;;;14.90;99.90;;;14.84;96.63;98353.63;5075003;28;20658;-83
2021/10/04 07:00:17;;;;;;;1.73;1.07;;;14.90;99.90;;;14.87;96.79;98358.63;5075622;28;20703;-83
2021/10/04 07:02:46;;;;;;;2.30;1.10;;;14.90;99.90;;;14.87;96.00;98364.72;5065561;28;20710;-83
2021/10/04 07:05:15;;;;;;;1.90;1.00;;;14.90;99.90;;;14.89;95.47;98375.09;5069715;28;20615;-83
2021/10/04 07:07:46;;;;;;;1.90;1.20;;;15.00;99.90;;;14.91;96.79;98376.63;5075104;28;20665;-83
2021/10/04 07:10:15;;;;;;;1.63;0.93;;;15.00;99.90;;;14.93;96.09;98369.47;5077629;28;20650;-83
2021/10/04 07:12:43;;;;;;;3.83;1.80;;;15.00;99.90;;;14.93;97.46;98369.47;5078013;28;20643;-83
2021/10/04 07:15:12;;;;;;;2.73;1.13;;;15.00;99.90;;;14.94;95.82;98381.63;5076599;28;20738;-83
2021/10/04 07:17:41;;;;;;;2.23;1.43;;;15.00;99.90;;;14.95;96.89;98385.94;5089419;28;20633;-83
2021/10/04 07:20:11;;;;;;;2.57;1.63;;;15.00;99.90;;;14.97;97.29;98383.19;5074590;28;20636;-83
2021/10/04 07:22:40;;;;;;;3.50;1.80;;;15.10;99.90;;;15.00;95.73;98383.78;5072332;28;21267;-83
2021/10/04 07:25:12;;;;;;;2.80;2.20;;;15.10;99.90;;;15.06;97.26;98393.78;5057884;28;20631;-83
2021/10/04 07:27:41;;;;;;;3.00;1.33;;;15.10;99.90;;;15.09;95.21;98401.41;5072611;28;20996;-83
2021/10/04 07:30:11;;;;;;;1.70;0.90;;;15.20;99.90;;;15.10;95.38;98405.72;5089118;28;20635;-83
2021/10/04 07:32:40;;;;;;;1.97;1.23;;;15.20;99.90;;;15.12;96.03;98407.28;5082168;28;20661;-83
2021/10/04 07:35:10;;;;;;;2.30;1.50;;;15.20;99.90;;;15.15;95.75;98406.16;5074174;28;21203;-83
2021/10/04 07:37:39;;;;;;;2.70;1.60;;;15.20;99.90;;;15.16;95.35;98413.09;5075303;28;20647;-83
2021/10/04 07:40:11;;;;;;;1.77;1.17;;;15.20;99.90;;;15.21;95.19;98416.22;5072034;28;20639;-83
2021/10/04 07:42:42;;;;;;;3.47;1.50;;;15.30;99.90;;;15.20;95.00;98410.13;5072066;28;20627;-83
2021/10/04 07:45:12;;;;;;;3.13;1.20;;;15.30;99.90;;;15.18;96.47;98414.69;5056364;28;20628;-83
2021/10/04 07:47:40;;;;;;;3.50;1.20;;;15.30;99.90;;;15.19;96.89;98423.41;5074063;28;21146;-83
2021/10/04 07:50:14;;;;;;;2.60;1.13;;;15.30;99.90;;;15.21;96.34;98418.84;5073035;28;20675;-83
2021/10/04 07:52:44;;;;;;;3.50;1.40;;;15.30;99.90;;;15.21;96.44;98417.03;5069748;28;20714;-83
2021/10/04 07:55:14;;;;;;;1.87;1.10;;;15.30;99.90;;;15.28;96.66;98433.16;5071189;28;20734;-83
2021/10/04 07:57:48;;;;;;;1.60;0.90;;;15.40;99.90;;;15.28;94.64;98436.63;5065753;28;20670;-83
2021/10/04 08:00:19;;;;;;;2.23;1.07;;;15.40;99.90;;;15.28;96.69;98441.88;5072828;28;20628;-83
2021/10/04 08:02:48;;;;;;;2.83;1.43;;;15.40;99.90;;;15.28;95.00;98448.94;5072553;28;21210;-83
2021/10/04 08:05:17;;;;;;;6.30;2.20;;;15.30;99.90;;;15.28;96.19;98454.19;5080188;28;20616;-83
2021/10/04 08:07:46;;;;;;;1.90;1.30;;;15.40;99.90;;;15.28;95.25;98457.66;5058064;28;20679;-83
2021/10/04 08:10:16;;;;;;;1.67;1.13;;;15.40;99.90;;;15.30;94.86;98458.34;5070985;28;20634;-83
2021/10/04 08:12:47;;;;;;;2.00;1.20;;;15.40;99.90;;;15.33;96.38;98462.53;5072198;28;20664;-83
2021/10/04 08:15:16;;;;;;;3.37;1.20;;;15.40;99.90;;;15.32;95.84;98471.38;5072793;28;20627;-83
2021/10/04 08:17:45;;;;;;;1.67;1.10;;;15.40;99.90;;;15.33;95.38;98475.66;5071861;28;20632;-83
2021/10/04 08:20:14;;;;;;;2.20;1.37;;;15.40;99.90;;;15.34;95.49;98469.47;5075173;28;20697;-83
2021/10/04 08:22:43;;;;;;;1.83;1.10;;;15.50;99.90;;;15.33;95.39;98471.25;5067955;28;20636;-83
2021/10/04 08:25:12;;;;;;;1.63;1.07;;;15.40;99.90;;;15.34;96.71;98472.09;5072526;28;20632;-83
2021/10/04 08:27:43;;;;;;;1.73;1.00;;;15.50;99.90;;;15.39;94.86;98462.84;5085839;28;20654;-83
2021/10/04 08:30:13;;;;;;;2.43;0.90;;;15.50;99.90;;;15.44;95.58;98465.09;5075718;28;20680;-83
2021/10/04 08:32:42;;;;;;;2.40;1.20;;;15.50;99.90;;;15.55;94.93;98453.59;5074217;28;20687;-83
2021/10/04 08:35:11;;;;;;;1.53;0.83;;;15.60;99.90;;;15.63;94.31;98469.56;5087393;28;21234;-83
2021/10/04 08:37:39;;;;;;;49.13;36.93;;;15.70;99.90;;;15.65;95.79;98459.78;5087444;28;20652;-83
2021/10/04 08:40:12;;;;;;;1.70;1.00;;;15.70;99.90;;;15.60;92.99;98455.84;5071719;28;20636;-83
2021/10/04 08:42:45;;;;;;;1.57;0.97;;;15.70;99.90;;;15.56;94.38;98463.16;5072723;28;20616;-83
2021/10/04 08:45:14;;;;;;;2.37;0.90;;;15.70;99.90;;;15.59;95.55;98469.94;5072723;28;20631;-83
2021/10/04 08:47:43;;;;;;;1.60;0.93;;;15.70;99.90;;;15.58;94.23;98484.88;5073089;28;20632;-83
2021/10/04 08:50:16;;;;;;;1.80;1.20;;;15.70;99.90;;;15.58;94.22;98479.63;5082435;28;20672;-83
2021/10/04 08:52:45;;;;;;;1.50;0.90;;;15.70;99.90;;;15.55;94.32;98476.44;5071671;28;20685;-83
2021/10/04 08:55:18;;;;;;;1.80;1.10;;;15.70;99.90;;;15.55;93.87;98480.88;5076662;28;20638;-83
2021/10/04 08:57:48;;;;;;;1.70;0.90;;;15.60;99.90;;;15.55;94.22;98479.88;5072765;28;20646;-83
2021/10/04 09:00:21;;;;;;;2.00;0.70;;;15.60;99.90;;;15.56;95.07;98489.44;5070251;28;20968;-83
2021/10/04 09:02:50;;;;;;;1.40;0.70;;;15.70;99.90;;;15.59;95.73;98490.97;5065706;28;20627;-83
2021/10/04 09:05:23;;;;;;;1.47;0.80;;;15.70;99.90;;;15.60;95.17;98492.66;5072025;28;20689;-83
2021/10/04 09:07:54;;;;;;;3.10;0.87;;;15.70;99.90;;;15.59;94.59;98494.47;5073212;28;20667;-83
2021/10/04 09:10:24;;;;;;;2.00;0.97;;;15.70;99.90;;;15.58;94.78;98497.22;5087539;28;20613;-84
2021/10/04 09:12:57;;;;;;;1.83;0.80;;;15.70;99.90;;;15.61;94.58;98495.16;5064061;28;20766;-83
2021/10/04 09:15:31;;;;;;;1.30;0.80;;;15.70;99.90;;;15.65;94.52;98485.22;5073661;28;21237;-83
2021/10/04 09:18:03;;;;;;;1.97;1.20;;;15.70;99.90;;;15.68;94.06;98485.81;5075941;28;20635;-83
2021/10/04 09:20:56;;;;;;;1.60;1.10;;;15.80;99.90;;;15.73;94.38;98482.81;5075791;28;20635;-84
2021/10/04 09:23:44;;;;;;;2.00;1.17;;;15.80;99.90;;;15.76;95.73;98485.19;5072241;28;20707;-83
2021/10/04 09:26:35;;;;;;;2.50;1.50;;;15.80;99.90;;;15.77;95.40;98485.06;5072094;28;20624;-83
2021/10/04 09:29:08;;;;;;;6.10;4.73;;;15.90;99.90;;;15.80;93.70;98483.94;5071697;28;20660;-83
2021/10/04 09:31:40;;;;;;;2.53;2.10;;;15.90;99.90;;;15.83;95.32;98487.19;5071597;28;20632;-83
2021/10/04 09:34:12;;;;;;;2.30;1.83;;;15.90;99.90;;;15.85;94.31;98492.31;5077088;28;20616;-84
2021/10/04 09:36:44;;;;;;;2.20;1.80;;;15.90;99.90;;;15.92;95.65;98494.31;5074159;28;20643;-83
2021/10/04 09:39:20;;;;;;;2.87;2.60;;;16.00;99.90;;;16.02;94.16;98501.28;5071578;28;20625;-83
2021/10/04 09:42:14;;;;;;;3.27;2.97;;;16.00;99.90;;;16.08;93.97;98505.22;5046220;28;20650;-83
2021/10/04 09:44:57;;;;;;;3.10;2.80;;;16.10;99.90;;;16.09;95.15;98502.44;5065254;28;20639;-83
2021/10/04 09:47:30;;;;;;;4.07;3.67;;;16.10;99.90;;;16.13;95.02;98505.66;5066532;28;20635;-83
2021/10/04 09:50:04;;;;;;;2.63;2.43;;;16.20;99.90;;;16.18;94.11;98500.88;5067153;28;20640;-82
2021/10/04 09:52:45;;;;;;;2.80;2.50;;;16.20;99.90;;;16.24;94.10;98501.19;5065587;28;20752;-83
2021/10/04 09:55:30;;;;;;;3.73;3.20;;;16.20;99.90;;;16.25;93.91;98512.56;5063737;28;20746;-83
2021/10/04 09:58:06;;;;;;;2.50;2.30;;;16.30;99.90;;;16.21;93.01;98517.22;5066523;28;21580;-82
2021/10/04 10:00:40;;;;;;;2.60;2.40;;;16.30;99.90;;;16.14;91.72;98509.97;5068002;28;20779;-83
2021/10/04 10:03:11;;;;;;;3.57;2.90;;;16.20;99.90;;;16.14;92.74;98512.59;5070568;28;20646;-83
2021/10/04 10:05:43;;;;;;;5.57;4.00;;;16.20;99.90;;;16.20;92.12;98514.72;5066614;28;20816;-84
2021/10/04 10:08:12;;;;;;;8.87;5.10;;;16.30;99.90;;;16.25;92.64;98523.09;5073560;28;20636;-83
2021/10/04 10:10:44;;;;;;;4.10;2.80;;;16.30;99.90;;;16.35;93.00;98506.38;5071975;28;20706;-83
2021/10/04 10:13:15;;;;;;;3.03;2.43;;;16.40;99.90;;;16.42;93.05;98511.97;5070856;28;20764;-84
2021/10/04 10:16:02;;;;;;;3.73;2.87;;;16.40;99.90;;;16.50;92.76;98503.28;5071456;28;20638;-83
2021/10/04 10:18:40;;;;;;;4.97;3.30;;;16.50;99.90;;;16.63;92.88;98503.91;5084561;28;20616;-83
2021/10/04 10:21:19;;;;;;;3.27;2.77;;;16.60;99.90;;;16.70;92.26;98501.56;5062718;28;21189;-83
2021/10/04 10:23:52;;;;;;;3.10;2.10;;;16.70;99.90;;;16.78;92.43;98497.31;5069229;28;20674;-83
2021/10/04 10:26:35;;;;;;;3.50;2.60;;;16.70;99.90;;;16.87;92.22;98496.53;5070310;28;20632;-84
2021/10/04 10:29:28;;;;;;;3.70;3.30;;;16.80;99.90;;;16.97;92.31;98507.91;5070700;28;20675;-84
2021/10/04 10:32:20;;;;;;;4.13;1.80;;;16.90;99.90;;;16.93;89.05;98498.63;5076359;28;20638;-83
2021/10/04 10:34:52;;;;;;;2.30;1.80;;;16.80;99.90;;;16.88;90.37;98502.63;5071851;28;20639;-83